Time;durP1;ratioP1;P1;durP2;ratioP2;P2;SDS_P1;SDS_P2;PMS_P1;PMS_P2;Temp;Humidity;BMP_temperature;BMP_pressure;BME280_temperature;BME280_humidity;BME280_pressure;Samples;Min_cycle;Max_cycle;Signal;HPM_P1;HPM_P2
2022/07/06 00:00:25;;;;;;;4.72;2.85;;;;;;;;;;4984630;28;20034;-71
2022/07/06 00:02:51;;;;;;;3.75;2.85;;;;;;;;;;4984569;28;20046;-71
2022/07/06 00:05:16;;;;;;;4.38;2.88;;;;;;;;;;4984005;28;20061;-71
2022/07/06 00:07:41;;;;;;;4.22;2.90;;;;;;;;;;4984289;28;20388;-71
2022/07/06 00:10:07;;;;;;;3.58;2.70;;;;;;;;;;4984727;28;20072;-71
2022/07/06 00:12:32;;;;;;;11.48;2.80;;;;;;;;;;4984317;28;20034;-71
2022/07/06 00:14:58;;;;;;;3.05;2.80;;;;;;;;;;4984493;28;20038;-71
2022/07/06 00:17:24;;;;;;;3.40;2.47;;;;;;;;;;4982433;28;20156;-71
2022/07/06 00:19:50;;;;;;;8.40;2.85;;;;;;;;;;4984221;28;20034;-71
2022/07/06 00:22:15;;;;;;;4.20;2.60;;;;;;;;;;4983989;28;20030;-71
2022/07/06 00:24:41;;;;;;;2.90;2.65;;;;;;;;;;4984315;28;20113;-71
2022/07/06 00:27:06;;;;;;;3.53;2.88;;;;;;;;;;4983244;28;20120;-71
2022/07/06 00:29:31;;;;;;;4.85;3.05;;;;;;;;;;4983122;28;20114;-71
2022/07/06 00:31:57;;;;;;;4.13;2.85;;;;;;;;;;4983831;28;20404;-71
2022/07/06 00:34:23;;;;;;;4.13;3.30;;;;;;;;;;4982804;28;20046;-71
2022/07/06 00:36:48;;;;;;;3.65;2.70;;;;;;;;;;4982641;28;20129;-71
2022/07/06 00:39:14;;;;;;;5.10;2.45;;;;;;;;;;4983300;28;20052;-71
2022/07/06 00:41:39;;;;;;;5.85;2.45;;;;;;;;;;4982195;28;20046;-71
2022/07/06 00:44:09;;;;;;;5.57;2.30;;;;;;;;;;4983731;28;20038;-71
2022/07/06 00:46:34;;;;;;;8.75;2.88;;;;;;;;;;4982873;28;20034;-71
2022/07/06 00:49:00;;;;;;;6.40;2.33;;;;;;;;;;4982907;28;20513;-71
2022/07/06 00:51:32;;;;;;;9.15;2.58;;;;;;;;;;4982097;28;20403;-71
2022/07/06 00:54:00;;;;;;;5.93;2.20;;;;;;;;;;4983581;28;21063;-71
2022/07/06 00:56:29;;;;;;;5.07;2.22;;;;;;;;;;4982288;28;20073;-71
2022/07/06 00:58:54;;;;;;;1.95;1.85;;;;;;;;;;4983540;28;20038;-71
2022/07/06 01:01:20;;;;;;;4.13;2.30;;;;;;;;;;4980938;28;20038;-71
2022/07/06 01:03:45;;;;;;;5.68;2.53;;;;;;;;;;4982135;28;20053;-71
2022/07/06 01:06:12;;;;;;;7.25;2.47;;;;;;;;;;4983630;28;21068;-71
2022/07/06 01:08:38;;;;;;;5.75;1.88;;;;;;;;;;4982041;28;20050;-71
2022/07/06 01:11:03;;;;;;;4.32;1.98;;;;;;;;;;4980832;28;20427;-71
2022/07/06 01:13:31;;;;;;;2.55;2.17;;;;;;;;;;4981808;28;20109;-71
2022/07/06 01:15:57;;;;;;;5.07;1.83;;;;;;;;;;4982015;28;20057;-71
2022/07/06 01:18:23;;;;;;;4.22;2.10;;;;;;;;;;4982013;28;20254;-71
2022/07/06 01:20:48;;;;;;;3.00;1.85;;;;;;;;;;4982954;28;20052;-71
2022/07/06 01:23:14;;;;;;;3.50;2.10;;;;;;;;;;4964653;28;20042;-71
2022/07/06 01:25:39;;;;;;;3.10;1.90;;;;;;;;;;4982797;28;20411;-71
2022/07/06 01:28:05;;;;;;;2.67;2.47;;;;;;;;;;4965951;28;20098;-71
2022/07/06 01:30:30;;;;;;;1.95;1.85;;;;;;;;;;4981375;28;20065;-71
2022/07/06 01:32:56;;;;;;;3.33;1.90;;;;;;;;;;4980493;28;20034;-71
2022/07/06 01:35:23;;;;;;;3.67;2.00;;;;;;;;;;4981588;28;20077;-71
2022/07/06 01:37:49;;;;;;;1.70;1.42;;;;;;;;;;4983092;28;20045;-71
2022/07/06 01:40:15;;;;;;;5.32;1.95;;;;;;;;;;4981588;28;20042;-71
2022/07/06 01:42:40;;;;;;;2.63;1.98;;;;;;;;;;4982698;28;20035;-70
2022/07/06 01:45:07;;;;;;;2.70;1.83;;;;;;;;;;4977017;28;21064;-71
2022/07/06 01:47:33;;;;;;;3.17;1.80;;;;;;;;;;4981056;28;20037;-71
2022/07/06 01:50:06;;;;;;;2.03;1.90;;;;;;;;;;4982685;28;20503;-71
2022/07/06 01:52:34;;;;;;;4.15;2.05;;;;;;;;;;4981399;28;20034;-71
2022/07/06 01:55:02;;;;;;;3.55;1.90;;;;;;;;;;4980447;28;20073;-71
2022/07/06 01:57:29;;;;;;;7.78;2.40;;;;;;;;;;4981467;28;20066;-71
2022/07/06 01:59:55;;;;;;;4.80;1.90;;;;;;;;;;4981013;28;20061;-71
2022/07/06 02:02:20;;;;;;;3.03;1.88;;;;;;;;;;4981039;28;20088;-71
2022/07/06 02:04:46;;;;;;;1.70;1.60;;;;;;;;;;4980856;28;20042;-71
2022/07/06 02:07:11;;;;;;;3.03;2.25;;;;;;;;;;4980313;28;20101;-71
2022/07/06 02:09:37;;;;;;;5.57;2.10;;;;;;;;;;4980909;28;20056;-71
2022/07/06 02:12:02;;;;;;;9.15;2.00;;;;;;;;;;4980704;28;21044;-71
2022/07/06 02:14:28;;;;;;;2.03;1.73;;;;;;;;;;4980732;28;20038;-71
2022/07/06 02:16:54;;;;;;;7.18;2.03;;;;;;;;;;4980193;28;20038;-71
2022/07/06 02:19:19;;;;;;;1.92;1.70;;;;;;;;;;4981918;28;20038;-71
2022/07/06 02:21:45;;;;;;;2.67;1.45;;;;;;;;;;4964538;28;20034;-71
2022/07/06 02:24:11;;;;;;;2.22;1.80;;;;;;;;;;4982237;28;20148;-71
2022/07/06 02:26:37;;;;;;;1.80;1.50;;;;;;;;;;4980760;28;20132;-71
2022/07/06 02:29:03;;;;;;;1.30;1.20;;;;;;;;;;4979901;28;20022;-71
2022/07/06 02:31:28;;;;;;;2.72;1.40;;;;;;;;;;4981657;28;20096;-71
2022/07/06 02:33:54;;;;;;;1.80;1.27;;;;;;;;;;4982004;28;20034;-72
2022/07/06 02:36:19;;;;;;;2.15;1.27;;;;;;;;;;4964149;28;20427;-73
2022/07/06 02:38:45;;;;;;;1.35;1.25;;;;;;;;;;4979674;28;20121;-71
2022/07/06 02:41:10;;;;;;;2.95;1.25;;;;;;;;;;4981559;28;20030;-71
2022/07/06 02:43:38;;;;;;;2.17;1.35;;;;;;;;;;4981193;28;20108;-71
2022/07/06 02:46:03;;;;;;;1.60;1.35;;;;;;;;;;4982253;28;20038;-71
2022/07/06 02:48:30;;;;;;;3.35;1.50;;;;;;;;;;4980442;28;20077;-71
2022/07/06 02:50:55;;;;;;;3.58;1.40;;;;;;;;;;4979396;28;20066;-71
2022/07/06 02:53:21;;;;;;;1.23;1.13;;;;;;;;;;4980103;28;20034;-73
2022/07/06 02:55:51;;;;;;;2.92;1.50;;;;;;;;;;4980210;28;20069;-71
2022/07/06 02:58:16;;;;;;;8.05;1.58;;;;;;;;;;4970859;28;20061;-70
2022/07/06 03:00:41;;;;;;;3.45;1.70;;;;;;;;;;4978767;28;20455;-71
2022/07/06 03:03:08;;;;;;;3.20;1.55;;;;;;;;;;4980386;28;20503;-70
2022/07/06 03:05:34;;;;;;;8.85;1.70;;;;;;;;;;4981619;28;20117;-71
2022/07/06 03:08:00;;;;;;;2.53;1.70;;;;;;;;;;4980139;28;20041;-71
2022/07/06 03:10:25;;;;;;;1.45;1.30;;;;;;;;;;4981642;28;20042;-71
2022/07/06 03:12:51;;;;;;;2.63;1.40;;;;;;;;;;4962768;28;20042;-70
2022/07/06 03:15:16;;;;;;;4.32;1.35;;;;;;;;;;4980497;28;20101;-70
2022/07/06 03:17:44;;;;;;;4.65;1.40;;;;;;;;;;4980076;28;20451;-70
2022/07/06 03:20:11;;;;;;;2.72;1.35;;;;;;;;;;4980363;28;20069;-70
2022/07/06 03:22:38;;;;;;;6.03;1.30;;;;;;;;;;4979800;28;20065;-72
2022/07/06 03:25:05;;;;;;;3.58;1.38;;;;;;;;;;4979861;28;20030;-71
2022/07/06 03:27:31;;;;;;;1.95;1.40;;;;;;;;;;4980197;28;20041;-71
2022/07/06 03:29:58;;;;;;;1.80;1.13;;;;;;;;;;4980087;28;20035;-71
2022/07/06 03:32:23;;;;;;;7.78;1.30;;;;;;;;;;4980939;28;20112;-69
2022/07/06 03:34:50;;;;;;;2.65;1.30;;;;;;;;;;4978757;28;20158;-70
2022/07/06 03:37:15;;;;;;;1.45;1.20;;;;;;;;;;4963565;28;20050;-71
2022/07/06 03:39:41;;;;;;;1.85;1.40;;;;;;;;;;4979922;28;20518;-71
2022/07/06 03:42:08;;;;;;;5.97;1.40;;;;;;;;;;4979668;28;20046;-71
2022/07/06 03:44:34;;;;;;;3.78;1.58;;;;;;;;;;4976890;28;20049;-70
2022/07/06 03:47:00;;;;;;;1.92;1.17;;;;;;;;;;4979020;28;20038;-71
2022/07/06 03:49:27;;;;;;;3.17;1.40;;;;;;;;;;4979651;28;20037;-71
2022/07/06 03:51:54;;;;;;;2.15;1.30;;;;;;;;;;4979654;28;20046;-71
2022/07/06 03:54:20;;;;;;;1.70;1.48;;;;;;;;;;4978043;28;20606;-71
2022/07/06 03:56:47;;;;;;;2.83;1.50;;;;;;;;;;4981560;28;20046;-71
2022/07/06 03:59:14;;;;;;;3.30;1.50;;;;;;;;;;4983336;28;20042;-71
2022/07/06 04:01:41;;;;;;;1.77;1.40;;;;;;;;;;4983432;28;20042;-72
2022/07/06 04:04:08;;;;;;;3.50;1.30;;;;;;;;;;4983259;28;20034;-72
2022/07/06 04:06:38;;;;;;;3.45;1.48;;;;;;;;;;4982619;28;20046;-71
2022/07/06 04:09:04;;;;;;;2.60;1.42;;;;;;;;;;4983472;28;20153;-71
2022/07/06 04:11:30;;;;;;;2.08;1.17;;;;;;;;;;4982924;28;20129;-70
2022/07/06 04:13:56;;;;;;;3.38;1.27;;;;;;;;;;4983068;28;20049;-72
2022/07/06 04:16:23;;;;;;;1.70;1.60;;;;;;;;;;4982884;28;20030;-71
2022/07/06 04:18:48;;;;;;;3.35;1.40;;;;;;;;;;4982043;28;20104;-72
2022/07/06 04:21:14;;;;;;;2.25;1.40;;;;;;;;;;4982594;28;20042;-70
2022/07/06 04:23:39;;;;;;;2.80;1.25;;;;;;;;;;4984154;28;20125;-72
2022/07/06 04:26:06;;;;;;;3.05;1.30;;;;;;;;;;4967156;28;20443;-72
2022/07/06 04:28:34;;;;;;;1.42;1.33;;;;;;;;;;4982093;28;20030;-70
2022/07/06 04:31:00;;;;;;;2.85;1.38;;;;;;;;;;4982536;28;20034;-72
2022/07/06 04:33:26;;;;;;;2.90;1.20;;;;;;;;;;4982876;28;20706;-70
2022/07/06 04:35:51;;;;;;;4.00;1.48;;;;;;;;;;4982177;28;21057;-72
2022/07/06 04:38:19;;;;;;;5.18;1.30;;;;;;;;;;4982607;28;20046;-70
2022/07/06 04:40:47;;;;;;;3.03;1.38;;;;;;;;;;4981385;28;20042;-71
2022/07/06 04:43:14;;;;;;;1.27;1.17;;;;;;;;;;4981835;28;20048;-72
2022/07/06 04:45:41;;;;;;;1.88;1.40;;;;;;;;;;4981829;28;20177;-70
2022/07/06 04:48:08;;;;;;;2.28;1.20;;;;;;;;;;4970959;28;20042;-72
2022/07/06 04:50:35;;;;;;;3.55;1.10;;;;;;;;;;4965029;28;20038;-72
2022/07/06 04:53:02;;;;;;;2.38;1.13;;;;;;;;;;4981836;28;20415;-71
2022/07/06 04:55:30;;;;;;;1.90;1.35;;;;;;;;;;4982051;28;20030;-72
2022/07/06 04:57:55;;;;;;;1.27;1.10;;;;;;;;;;4981907;28;20034;-71
2022/07/06 05:00:21;;;;;;;4.63;1.30;;;;;;;;;;4978786;28;20113;-70
2022/07/06 05:02:49;;;;;;;2.25;1.30;;;;;;;;;;4980975;28;20407;-70
2022/07/06 05:05:14;;;;;;;1.85;1.38;;;;;;;;;;4981922;28;20518;-70
2022/07/06 05:07:41;;;;;;;1.23;1.00;;;;;;;;;;4980984;28;20459;-70
2022/07/06 05:10:11;;;;;;;1.77;1.10;;;;;;;;;;4965806;28;20523;-69
2022/07/06 05:12:39;;;;;;;2.00;1.10;;;;;;;;;;4980279;28;20045;-70
2022/07/06 05:15:06;;;;;;;4.57;1.52;;;;;;;;;;4981236;28;20042;-69
2022/07/06 05:17:31;;;;;;;3.50;1.20;;;;;;;;;;4982043;28;20345;-69
2022/07/06 05:19:59;;;;;;;1.92;1.25;;;;;;;;;;4981368;28;20124;-70
2022/07/06 05:22:26;;;;;;;2.42;1.10;;;;;;;;;;4980826;28;20172;-70
2022/07/06 05:24:52;;;;;;;5.70;0.90;;;;;;;;;;4980897;28;20030;-70
2022/07/06 05:27:19;;;;;;;1.58;1.00;;;;;;;;;;4979866;28;20510;-69
2022/07/06 05:29:46;;;;;;;3.75;0.80;;;;;;;;;;4980067;28;20042;-69
2022/07/06 05:32:11;;;;;;;1.00;0.80;;;;;;;;;;4980199;28;20042;-70
2022/07/06 05:34:38;;;;;;;1.85;0.85;;;;;;;;;;4979109;28;20041;-70
2022/07/06 05:37:03;;;;;;;1.40;0.95;;;;;;;;;;4980355;28;20440;-70
2022/07/06 05:39:29;;;;;;;2.53;1.20;;;;;;;;;;4979980;28;20567;-70
2022/07/06 05:41:55;;;;;;;4.35;1.20;;;;;;;;;;4979999;28;20383;-70
2022/07/06 05:44:20;;;;;;;3.67;1.00;;;;;;;;;;4979960;28;20045;-70
2022/07/06 05:46:45;;;;;;;1.02;0.85;;;;;;;;;;4979197;28;21197;-70
2022/07/06 05:51:56;;;;;;;1.33;0.80;;;;;;;;;;4980916;28;20050;-69
2022/07/06 05:54:22;;;;;;;1.60;0.80;;;;;;;;;;4976383;28;20088;-70
2022/07/06 05:56:48;;;;;;;2.05;1.42;;;;;;;;;;4979989;28;20036;-71
2022/07/06 05:59:14;;;;;;;3.67;0.98;;;;;;;;;;4963407;28;20117;-72
2022/07/06 06:01:39;;;;;;;1.95;1.00;;;;;;;;;;4980176;28;20041;-71
2022/07/06 06:04:10;;;;;;;2.87;0.90;;;;;;;;;;4979440;28;20499;-70
2022/07/06 06:06:35;;;;;;;1.98;1.00;;;;;;;;;;4979867;28;20491;-69
2022/07/06 06:09:01;;;;;;;2.47;1.00;;;;;;;;;;4978575;28;20049;-70
2022/07/06 06:11:27;;;;;;;1.85;1.13;;;;;;;;;;4979333;28;20049;-70
2022/07/06 06:13:53;;;;;;;1.75;1.30;;;;;;;;;;4962926;28;20026;-71
2022/07/06 06:16:19;;;;;;;1.45;1.17;;;;;;;;;;4971178;28;20088;-71
2022/07/06 06:18:45;;;;;;;4.03;0.98;;;;;;;;;;4972753;28;20038;-71
2022/07/06 06:21:10;;;;;;;1.90;1.10;;;;;;;;;;4981654;28;20194;-70
2022/07/06 06:23:36;;;;;;;1.23;0.95;;;;;;;;;;4980145;28;20188;-70
2022/07/06 06:26:01;;;;;;;1.05;1.00;;;;;;;;;;4980973;28;20034;-69
2022/07/06 06:28:27;;;;;;;4.07;1.15;;;;;;;;;;4980775;28;20030;-71
2022/07/06 06:30:52;;;;;;;2.33;1.15;;;;;;;;;;4979396;28;20037;-71
2022/07/06 06:33:19;;;;;;;2.60;1.17;;;;;;;;;;4981893;28;20069;-72
2022/07/06 06:35:50;;;;;;;3.90;1.63;;;;;;;;;;4964009;28;20466;-71
2022/07/06 06:38:17;;;;;;;4.80;1.23;;;;;;;;;;4981618;28;20053;-70
2022/07/06 06:40:42;;;;;;;3.45;1.33;;;;;;;;;;4980636;28;20034;-71
2022/07/06 06:43:08;;;;;;;1.20;1.10;;;;;;;;;;4981503;28;20388;-71
2022/07/06 06:45:37;;;;;;;1.20;1.10;;;;;;;;;;4980112;28;20034;-70
2022/07/06 06:48:03;;;;;;;1.70;1.13;;;;;;;;;;4963855;28;20034;-69
2022/07/06 06:50:29;;;;;;;1.90;0.93;;;;;;;;;;4981734;28;20048;-70
2022/07/06 06:52:54;;;;;;;3.35;1.33;;;;;;;;;;4980733;28;20100;-72
2022/07/06 06:55:20;;;;;;;3.25;1.30;;;;;;;;;;4980096;28;20399;-72
2022/07/06 06:57:45;;;;;;;3.13;1.20;;;;;;;;;;4981325;28;20038;-71
2022/07/06 07:00:12;;;;;;;8.15;1.40;;;;;;;;;;4981728;28;20035;-71
2022/07/06 07:02:38;;;;;;;1.67;1.20;;;;;;;;;;4978805;28;20038;-72
2022/07/06 07:05:04;;;;;;;1.20;1.10;;;;;;;;;;4979816;28;20038;-71
2022/07/06 07:07:30;;;;;;;2.03;1.30;;;;;;;;;;4981511;28;20030;-72
2022/07/06 07:09:55;;;;;;;5.85;1.40;;;;;;;;;;4979325;28;20057;-72
2022/07/06 07:12:21;;;;;;;2.53;1.23;;;;;;;;;;4966270;28;20040;-72
2022/07/06 07:14:47;;;;;;;3.42;1.30;;;;;;;;;;4978752;28;21000;-74
2022/07/06 07:17:13;;;;;;;1.63;1.17;;;;;;;;;;4963809;28;20060;-71
2022/07/06 07:19:38;;;;;;;2.35;1.27;;;;;;;;;;4979776;28;20410;-73
2022/07/06 07:22:04;;;;;;;1.55;1.30;;;;;;;;;;4981198;28;20034;-72
2022/07/06 07:24:30;;;;;;;3.05;1.50;;;;;;;;;;4980273;28;20038;-72
2022/07/06 07:26:55;;;;;;;3.72;1.10;;;;;;;;;;4981109;28;20039;-72
2022/07/06 07:29:21;;;;;;;1.55;1.30;;;;;;;;;;4981425;28;20045;-71
2022/07/06 07:31:47;;;;;;;3.00;1.30;;;;;;;;;;4983045;28;20046;-71
2022/07/06 07:34:13;;;;;;;1.70;1.20;;;;;;;;;;4983830;28;20045;-71
2022/07/06 07:36:38;;;;;;;4.22;1.40;;;;;;;;;;4984037;28;20046;-69
2022/07/06 07:39:04;;;;;;;1.85;1.05;;;;;;;;;;4985050;28;20109;-74
2022/07/06 07:41:30;;;;;;;2.17;1.10;;;;;;;;;;4983560;28;20491;-72
2022/07/06 07:43:56;;;;;;;1.95;1.30;;;;;;;;;;4967506;28;20048;-72
2022/07/06 07:46:21;;;;;;;2.95;1.38;;;;;;;;;;4966674;28;20045;-72
2022/07/06 07:48:47;;;;;;;3.28;1.05;;;;;;;;;;4984916;28;20689;-72
2022/07/06 07:51:13;;;;;;;4.25;1.23;;;;;;;;;;4966938;28;20556;-71
2022/07/06 07:53:38;;;;;;;2.78;1.40;;;;;;;;;;4984479;28;20046;-71
2022/07/06 07:56:04;;;;;;;1.38;1.27;;;;;;;;;;4983362;28;20510;-71
2022/07/06 07:58:30;;;;;;;2.28;1.30;;;;;;;;;;4984055;28;20046;-72
2022/07/06 08:00:55;;;;;;;4.20;1.52;;;;;;;;;;4983036;28;20042;-74
2022/07/06 08:03:21;;;;;;;1.73;1.20;;;;;;;;;;4984332;28;20076;-73
2022/07/06 08:05:48;;;;;;;3.15;1.25;;;;;;;;;;4984467;28;20038;-74
2022/07/06 08:08:14;;;;;;;3.10;1.20;;;;;;;;;;4983523;28;20789;-75
2022/07/06 08:10:40;;;;;;;3.10;1.30;;;;;;;;;;4984584;28;20052;-73
2022/07/06 08:13:06;;;;;;;4.30;1.60;;;;;;;;;;4987108;28;20388;-74
2022/07/06 08:15:35;;;;;;;5.20;1.40;;;;;;;;;;4988424;28;20030;-74
2022/07/06 08:18:01;;;;;;;6.45;1.23;;;;;;;;;;4985886;28;20042;-74
2022/07/06 08:20:26;;;;;;;3.75;1.20;;;;;;;;;;4969287;28;20085;-74
2022/07/06 08:22:52;;;;;;;3.17;1.40;;;;;;;;;;4983209;28;20484;-73
2022/07/06 08:25:17;;;;;;;7.25;1.45;;;;;;;;;;4983426;28;20053;-74
2022/07/06 08:27:44;;;;;;;6.85;1.50;;;;;;;;;;4983924;28;20042;-74
2022/07/06 08:30:10;;;;;;;3.85;1.23;;;;;;;;;;4982176;28;20042;-73
2022/07/06 08:32:41;;;;;;;6.10;1.50;;;;;;;;;;4981708;28;20034;-72
2022/07/06 08:35:07;;;;;;;2.25;1.38;;;;;;;;;;4984264;28;20455;-74
2022/07/06 08:37:33;;;;;;;2.67;1.33;;;;;;;;;;4983956;28;20034;-74
2022/07/06 08:39:59;;;;;;;3.60;1.77;;;;;;;;;;4983910;28;20352;-74
2022/07/06 08:42:29;;;;;;;4.68;1.55;;;;;;;;;;4982325;28;20100;-76
2022/07/06 08:44:58;;;;;;;3.95;1.73;;;;;;;;;;4983776;28;20049;-73
2022/07/06 08:47:26;;;;;;;2.38;1.35;;;;;;;;;;4983416;28;20038;-73
2022/07/06 08:49:51;;;;;;;1.48;1.25;;;;;;;;;;4982072;28;20034;-73
2022/07/06 08:52:17;;;;;;;2.47;1.40;;;;;;;;;;4981303;28;20904;-75
2022/07/06 08:54:43;;;;;;;4.78;1.50;;;;;;;;;;4983316;28;20096;-74
2022/07/06 08:57:08;;;;;;;9.85;1.33;;;;;;;;;;4983194;28;20050;-74
2022/07/06 08:59:34;;;;;;;1.40;1.30;;;;;;;;;;4982186;28;20042;-74
2022/07/06 09:02:00;;;;;;;2.15;1.30;;;;;;;;;;4983272;28;20129;-74
2022/07/06 09:04:26;;;;;;;1.77;1.20;;;;;;;;;;4981414;28;20042;-74
2022/07/06 09:06:54;;;;;;;1.50;1.40;;;;;;;;;;4983152;28;20065;-72
2022/07/06 09:09:22;;;;;;;3.95;1.40;;;;;;;;;;4988190;28;20050;-75
2022/07/06 09:11:54;;;;;;;2.65;1.50;;;;;;;;;;4981749;28;20054;-74
2022/07/06 09:14:20;;;;;;;2.53;1.65;;;;;;;;;;4983306;28;20091;-73
2022/07/06 09:16:50;;;;;;;2.22;1.50;;;;;;;;;;4983278;28;20033;-72
2022/07/06 09:19:16;;;;;;;4.00;1.40;;;;;;;;;;4982168;28;20085;-76
2022/07/06 09:21:42;;;;;;;4.97;1.40;;;;;;;;;;4983264;28;20125;-75
2022/07/06 09:24:12;;;;;;;2.00;1.30;;;;;;;;;;4983807;28;20566;-74
2022/07/06 09:26:39;;;;;;;4.03;1.63;;;;;;;;;;4982744;28;20125;-76
2022/07/06 09:29:05;;;;;;;3.30;1.40;;;;;;;;;;4983387;28;20062;-74
2022/07/06 09:31:31;;;;;;;2.42;1.45;;;;;;;;;;4981803;28;20136;-74
2022/07/06 09:34:05;;;;;;;2.97;1.30;;;;;;;;;;4966169;28;20172;-72
2022/07/06 09:36:47;;;;;;;3.33;1.85;;;;;;;;;;4981330;28;20061;-74
2022/07/06 09:39:27;;;;;;;3.83;1.60;;;;;;;;;;4981197;28;20043;-71
2022/07/06 09:41:54;;;;;;;1.90;1.50;;;;;;;;;;4982407;28;20038;-72
2022/07/06 09:44:31;;;;;;;4.10;1.65;;;;;;;;;;4982670;28;20125;-73
2022/07/06 09:47:00;;;;;;;3.47;1.20;;;;;;;;;;4981377;28;20042;-71
2022/07/06 09:49:26;;;;;;;3.85;1.50;;;;;;;;;;4982256;28;20041;-72
2022/07/06 09:51:55;;;;;;;1.77;1.50;;;;;;;;;;4982038;28;20161;-73
2022/07/06 09:54:21;;;;;;;6.45;1.73;;;;;;;;;;4981955;28;20041;-74
2022/07/06 09:56:50;;;;;;;6.35;1.40;;;;;;;;;;4983025;28;20038;-74
2022/07/06 09:59:18;;;;;;;4.20;1.70;;;;;;;;;;4981312;28;20042;-74
2022/07/06 10:01:44;;;;;;;4.60;1.67;;;;;;;;;;4982101;28;20501;-74
2022/07/06 10:04:18;;;;;;;5.00;1.50;;;;;;;;;;4983691;28;20053;-73
2022/07/06 10:06:44;;;;;;;4.25;1.50;;;;;;;;;;4982753;28;20097;-72
2022/07/06 10:09:10;;;;;;;2.80;1.60;;;;;;;;;;4981446;28;20507;-72
2022/07/06 10:11:42;;;;;;;3.60;1.75;;;;;;;;;;4982242;28;20022;-72
2022/07/06 10:14:08;;;;;;;8.18;1.65;;;;;;;;;;4982454;28;20065;-73
2022/07/06 10:16:47;;;;;;;2.22;1.40;;;;;;;;;;4983778;28;20042;-77
2022/07/06 10:19:14;;;;;;;1.92;1.50;;;;;;;;;;4965835;28;20038;-73
2022/07/06 10:21:41;;;;;;;2.47;1.60;;;;;;;;;;4980141;28;20041;-74
2022/07/06 10:24:07;;;;;;;2.50;1.60;;;;;;;;;;4982195;28;20046;-74
2022/07/06 10:26:34;;;;;;;2.55;1.40;;;;;;;;;;4981886;28;20042;-74
2022/07/06 10:29:03;;;;;;;1.85;1.70;;;;;;;;;;4981665;28;20045;-75
2022/07/06 10:31:29;;;;;;;1.60;1.40;;;;;;;;;;4979817;28;20125;-73
2022/07/06 10:33:56;;;;;;;4.88;1.58;;;;;;;;;;4981227;28;21092;-70
2022/07/06 10:36:22;;;;;;;6.60;1.60;;;;;;;;;;4980339;28;20053;-73
2022/07/06 10:38:50;;;;;;;1.88;1.58;;;;;;;;;;4980271;28;20038;-73
2022/07/06 10:41:15;;;;;;;5.70;2.00;;;;;;;;;;4981512;28;20065;-75
2022/07/06 10:43:48;;;;;;;3.42;1.50;;;;;;;;;;4980322;28;20073;-73
2022/07/06 10:46:19;;;;;;;3.45;1.50;;;;;;;;;;4981628;28;20547;-72
2022/07/06 10:48:45;;;;;;;1.77;1.30;;;;;;;;;;4981916;28;20044;-72
2022/07/06 10:51:12;;;;;;;2.40;1.67;;;;;;;;;;4979872;28;20057;-72
2022/07/06 10:53:40;;;;;;;7.50;1.60;;;;;;;;;;4977427;28;20042;-72
2022/07/06 10:56:08;;;;;;;2.03;1.70;;;;;;;;;;4981536;28;20058;-73
2022/07/06 10:58:42;;;;;;;2.47;1.50;;;;;;;;;;4979724;28;20045;-73
2022/07/06 11:01:12;;;;;;;4.18;1.65;;;;;;;;;;4981754;28;20038;-73
2022/07/06 11:03:49;;;;;;;4.80;1.73;;;;;;;;;;4980746;28;20042;-73
2022/07/06 11:06:14;;;;;;;6.13;1.60;;;;;;;;;;4979926;28;20106;-73
2022/07/06 11:08:45;;;;;;;1.80;1.70;;;;;;;;;;4981579;28;20394;-73
2022/07/06 11:11:19;;;;;;;5.53;1.58;;;;;;;;;;4981316;28;20396;-71
2022/07/06 11:14:07;;;;;;;2.65;1.67;;;;;;;;;;4985954;28;20526;-73
2022/07/06 11:16:34;;;;;;;2.67;1.50;;;;;;;;;;4981170;28;20034;-71
2022/07/06 11:19:25;;;;;;;4.20;1.63;;;;;;;;;;4986858;28;20073;-72
2022/07/06 11:22:06;;;;;;;1.85;1.38;;;;;;;;;;4948195;28;20061;-71
2022/07/06 11:24:33;;;;;;;1.80;1.25;;;;;;;;;;4981579;28;20061;-72
2022/07/06 11:26:59;;;;;;;7.13;1.67;;;;;;;;;;4980408;28;20066;-73
2022/07/06 11:29:26;;;;;;;2.47;1.50;;;;;;;;;;4980120;28;20042;-73
2022/07/06 11:31:58;;;;;;;3.65;1.70;;;;;;;;;;4980639;28;20145;-73
2022/07/06 11:34:26;;;;;;;4.07;1.25;;;;;;;;;;4980857;28;20133;-74
2022/07/06 11:36:57;;;;;;;3.35;1.65;;;;;;;;;;4981378;28;20042;-71
2022/07/06 11:39:25;;;;;;;5.00;1.40;;;;;;;;;;4980094;28;20214;-71
2022/07/06 11:41:51;;;;;;;2.38;1.42;;;;;;;;;;4980640;28;20274;-70
2022/07/06 11:44:16;;;;;;;4.38;1.75;;;;;;;;;;4980958;28;20462;-70
2022/07/06 11:46:42;;;;;;;5.50;1.55;;;;;;;;;;4980788;28;21040;-70
2022/07/06 11:49:08;;;;;;;5.75;1.48;;;;;;;;;;4979518;28;20038;-71
2022/07/06 11:51:39;;;;;;;3.95;1.40;;;;;;;;;;4979274;28;20852;-73
2022/07/06 11:54:16;;;;;;;1.60;1.40;;;;;;;;;;4980364;28;20035;-70
2022/07/06 11:56:59;;;;;;;6.80;1.38;;;;;;;;;;4985988;28;20030;-75
2022/07/06 11:59:33;;;;;;;4.57;1.48;;;;;;;;;;4993419;28;20162;-71
2022/07/06 12:02:12;;;;;;;2.38;1.58;;;;;;;;;;4979221;28;20042;-71
2022/07/06 12:04:42;;;;;;;2.85;1.35;;;;;;;;;;4978952;28;20057;-72
2022/07/06 12:07:13;;;;;;;4.53;1.63;;;;;;;;;;4979616;28;20038;-72
2022/07/06 12:09:40;;;;;;;3.08;1.50;;;;;;;;;;4978258;28;20046;-72
2022/07/06 12:12:08;;;;;;;2.45;1.35;;;;;;;;;;4979234;28;20042;-71
2022/07/06 12:14:36;;;;;;;3.03;1.17;;;;;;;;;;4978099;28;20030;-71
2022/07/06 12:17:07;;;;;;;5.00;1.50;;;;;;;;;;4982097;28;20679;-72
2022/07/06 12:19:34;;;;;;;2.45;1.50;;;;;;;;;;4986084;28;20038;-72
2022/07/06 12:22:01;;;;;;;6.30;1.60;;;;;;;;;;4984814;28;20053;-72
2022/07/06 12:24:32;;;;;;;3.85;1.13;;;;;;;;;;4985734;28;20045;-73
2022/07/06 12:26:58;;;;;;;5.18;1.48;;;;;;;;;;4980345;28;20180;-72
2022/07/06 12:29:25;;;;;;;3.00;1.30;;;;;;;;;;4986075;28;20117;-75
2022/07/06 12:31:53;;;;;;;3.05;1.42;;;;;;;;;;4968155;28;20038;-75
2022/07/06 12:34:24;;;;;;;1.55;1.23;;;;;;;;;;4984019;28;20808;-77
2022/07/06 12:36:50;;;;;;;3.28;1.25;;;;;;;;;;4982211;28;20209;-74
2022/07/06 12:39:18;;;;;;;5.35;1.45;;;;;;;;;;4983747;28;20034;-73
2022/07/06 12:42:07;;;;;;;6.22;1.65;;;;;;;;;;4983351;28;20046;-72
2022/07/06 12:44:32;;;;;;;1.30;1.20;;;;;;;;;;4986452;28;20034;-72
2022/07/06 12:47:05;;;;;;;2.35;1.20;;;;;;;;;;4984108;28;20046;-71
2022/07/06 12:49:32;;;;;;;3.05;1.33;;;;;;;;;;4984416;28;20077;-71
2022/07/06 12:52:05;;;;;;;7.22;1.38;;;;;;;;;;4983997;28;20057;-71
2022/07/06 12:54:33;;;;;;;3.45;1.63;;;;;;;;;;4982020;28;20483;-71
2022/07/06 12:57:01;;;;;;;1.77;1.30;;;;;;;;;;4982561;28;20491;-72
2022/07/06 12:59:28;;;;;;;1.65;1.02;;;;;;;;;;4980498;28;20038;-72
2022/07/06 13:01:56;;;;;;;3.42;1.15;;;;;;;;;;4982663;28;20040;-72
2022/07/06 13:04:27;;;;;;;3.28;1.05;;;;;;;;;;4983151;28;20038;-72
2022/07/06 13:06:53;;;;;;;4.57;1.33;;;;;;;;;;4984339;28;20049;-72
2022/07/06 13:09:20;;;;;;;1.60;1.40;;;;;;;;;;4982861;28;20297;-72
2022/07/06 13:11:47;;;;;;;3.75;1.15;;;;;;;;;;4983431;28;20049;-72
2022/07/06 13:14:16;;;;;;;4.18;1.20;;;;;;;;;;4983069;28;20033;-71
2022/07/06 13:16:42;;;;;;;1.77;1.20;;;;;;;;;;4983113;28;20081;-72
2022/07/06 13:19:08;;;;;;;3.20;1.30;;;;;;;;;;4982605;28;20026;-71
2022/07/06 13:21:34;;;;;;;2.13;1.30;;;;;;;;;;4980627;28;20093;-71
2022/07/06 13:24:00;;;;;;;1.33;1.23;;;;;;;;;;4982685;28;20046;-70
2022/07/06 13:26:26;;;;;;;5.13;1.58;;;;;;;;;;4984032;28;20069;-70
2022/07/06 13:28:51;;;;;;;1.17;1.08;;;;;;;;;;4981266;28;20204;-72
2022/07/06 13:31:16;;;;;;;3.60;1.08;;;;;;;;;;4982346;28;20042;-71
2022/07/06 13:33:42;;;;;;;1.20;1.05;;;;;;;;;;4982120;28;20038;-70
2022/07/06 13:36:07;;;;;;;1.63;1.20;;;;;;;;;;4982278;28;20037;-71
2022/07/06 13:38:33;;;;;;;1.00;1.00;;;;;;;;;;4983186;28;20478;-72
2022/07/06 13:40:58;;;;;;;5.40;1.20;;;;;;;;;;4982133;28;20042;-71
2022/07/06 13:43:24;;;;;;;3.22;1.38;;;;;;;;;;4981276;28;20113;-72
2022/07/06 13:45:49;;;;;;;1.95;1.30;;;;;;;;;;4983013;28;20042;-73
2022/07/06 13:48:15;;;;;;;1.83;1.13;;;;;;;;;;4981481;28;20045;-72
2022/07/06 13:50:40;;;;;;;1.70;1.25;;;;;;;;;;4983525;28;20104;-70
2022/07/06 13:53:06;;;;;;;4.28;1.35;;;;;;;;;;4982431;28;20410;-73
2022/07/06 13:55:32;;;;;;;1.77;1.25;;;;;;;;;;4982763;28;20036;-73
2022/07/06 13:57:59;;;;;;;2.63;1.40;;;;;;;;;;4981138;28;20849;-72
2022/07/06 14:00:24;;;;;;;4.30;1.20;;;;;;;;;;4982536;28;20092;-73
2022/07/06 14:02:50;;;;;;;1.25;1.15;;;;;;;;;;4980989;28;20120;-72
2022/07/06 14:05:16;;;;;;;3.30;1.60;;;;;;;;;;4979910;28;20522;-73
2022/07/06 14:07:41;;;;;;;1.95;1.13;;;;;;;;;;4982286;28;20030;-71
2022/07/06 14:10:07;;;;;;;3.33;1.33;;;;;;;;;;4982711;28;20034;-73
2022/07/06 14:12:32;;;;;;;6.43;1.40;;;;;;;;;;4982511;28;20046;-73
2022/07/06 14:14:58;;;;;;;2.25;1.23;;;;;;;;;;4982148;28;20046;-73
2022/07/06 14:17:25;;;;;;;2.40;1.52;;;;;;;;;;4981596;28;20065;-72
2022/07/06 14:19:50;;;;;;;4.00;1.40;;;;;;;;;;4982070;28;20046;-71
2022/07/06 14:22:16;;;;;;;8.93;1.35;;;;;;;;;;4982121;28;20091;-73
2022/07/06 14:24:42;;;;;;;1.40;1.30;;;;;;;;;;4982624;28;20502;-73
2022/07/06 14:27:07;;;;;;;3.83;1.60;;;;;;;;;;4981270;28;20065;-73
2022/07/06 14:29:33;;;;;;;2.22;1.50;;;;;;;;;;4981184;28;20078;-72
2022/07/06 14:31:58;;;;;;;2.03;1.30;;;;;;;;;;4980198;28;20053;-73
2022/07/06 14:34:24;;;;;;;3.65;1.02;;;;;;;;;;4981321;28;20057;-72
2022/07/06 14:36:50;;;;;;;5.82;1.50;;;;;;;;;;4981649;28;20076;-72
2022/07/06 14:39:16;;;;;;;1.30;1.20;;;;;;;;;;4981048;28;20034;-74
2022/07/06 14:41:42;;;;;;;1.33;1.17;;;;;;;;;;4980059;28;20041;-72
2022/07/06 14:44:07;;;;;;;4.38;1.30;;;;;;;;;;4982081;28;20074;-72